Time;durP1;ratioP1;P1;durP2;ratioP2;P2;SDS_P1;SDS_P2;PMS_P1;PMS_P2;Temp;Humidity;BMP_temperature;BMP_pressure;BME280_temperature;BME280_humidity;BME280_pressure;Samples;Min_cycle;Max_cycle;Signal;HPM_P1;HPM_P2
2023/09/05 00:01:45;;;;;;;4.50;4.10;;;;;;;17.36;56.82;96821.47;4968182;28;20269;-70
2023/09/05 00:04:13;;;;;;;5.30;4.10;;;;;;;17.59;55.94;96832.41;4967025;28;20205;-69
2023/09/05 00:06:39;;;;;;;5.10;4.07;;;;;;;17.82;55.48;96820.31;4969822;28;20524;-69
2023/09/05 00:09:05;;;;;;;6.00;4.20;;;;;;;17.63;55.74;96826.81;4971040;28;20867;-69
2023/09/05 00:11:31;;;;;;;5.17;3.93;;;;;;;17.55;56.17;96819.34;4971358;28;20174;-69
2023/09/05 00:13:56;;;;;;;4.80;4.10;;;;;;;17.75;55.35;96820.69;4971231;28;20178;-69
2023/09/05 00:16:21;;;;;;;5.00;3.87;;;;;;;17.70;55.34;96819.31;4971962;28;20479;-69
2023/09/05 00:18:47;;;;;;;6.97;4.83;;;;;;;17.64;55.15;96817.03;4976088;28;20217;-69
2023/09/05 00:21:15;;;;;;;5.13;4.23;;;;;;;17.59;55.36;96811.19;4973221;28;20180;-69
2023/09/05 00:23:40;;;;;;;5.67;4.13;;;;;;;17.56;55.43;96813.09;4971993;28;20189;-69
2023/09/05 00:26:05;;;;;;;5.73;4.00;;;;;;;17.54;55.31;96822.09;4967577;28;20471;-70
2023/09/05 00:28:31;;;;;;;4.67;4.10;;;;;;;17.41;55.53;96822.06;4978916;28;20714;-69
2023/09/05 00:30:57;;;;;;;5.40;4.10;;;;;;;17.44;55.34;96808.59;4969625;28;20272;-69
2023/09/05 00:33:22;;;;;;;4.20;3.80;;;;;;;17.38;55.32;96806.31;4975809;28;20189;-69
2023/09/05 00:35:53;;;;;;;4.60;4.00;;;;;;;17.30;55.94;96813.94;4963241;28;20201;-69
2023/09/05 00:38:19;;;;;;;5.40;3.80;;;;;;;17.30;55.53;96811.28;4972425;28;20206;-69
2023/09/05 00:40:44;;;;;;;5.80;4.17;;;;;;;17.21;55.57;96810.06;4970671;28;20761;-69
2023/09/05 00:43:09;;;;;;;4.37;3.53;;;;;;;17.32;55.37;96804.06;4970308;28;20194;-69
2023/09/05 00:45:42;;;;;;;6.17;4.43;;;;;;;17.30;55.32;96801.50;4970616;28;20203;-68
2023/09/05 00:48:08;;;;;;;13.03;3.70;;;;;;;17.34;55.32;96791.56;4969670;28;20192;-69
2023/09/05 00:50:33;;;;;;;4.20;3.80;;;;;;;17.29;55.69;96804.25;4970761;28;20442;-69
2023/09/05 00:52:59;;;;;;;4.37;3.60;;;;;;;17.02;56.21;96799.78;4970067;28;20173;-69
2023/09/05 00:55:24;;;;;;;4.83;4.13;;;;;;;17.20;55.83;96795.09;4970588;28;20212;-69
2023/09/05 00:57:50;;;;;;;5.13;3.80;;;;;;;17.04;56.48;96799.69;4972439;28;20574;-69
2023/09/05 01:00:17;;;;;;;7.00;3.93;;;;;;;17.29;55.89;96801.59;4977539;28;20281;-70
2023/09/05 01:02:42;;;;;;;3.30;3.00;;;;;;;17.34;55.53;96802.19;4970337;28;20192;-70
2023/09/05 01:05:09;;;;;;;4.47;3.97;;;;;;;17.18;56.17;96802.31;4969891;28;20968;-70
2023/09/05 01:07:44;;;;;;;4.30;3.43;;;;;;;17.19;55.65;96809.31;4974868;28;20173;-69
2023/09/05 01:10:14;;;;;;;5.40;4.20;;;;;;;17.31;55.39;96802.34;4970238;28;20416;-69
2023/09/05 01:12:40;;;;;;;4.00;3.60;;;;;;;17.39;55.56;96810.69;4970084;28;20424;-70
2023/09/05 01:15:07;;;;;;;4.90;3.70;;;;;;;17.26;55.74;96813.25;4970104;28;20536;-69
2023/09/05 01:17:33;;;;;;;4.43;4.00;;;;;;;17.22;55.62;96805.59;4969368;28;20197;-69
2023/09/05 01:20:00;;;;;;;5.13;4.10;;;;;;;17.24;56.00;96803.69;4969745;28;20495;-69
2023/09/05 01:22:28;;;;;;;4.20;3.67;;;;;;;16.91;56.86;96792.50;4969866;28;20178;-69
2023/09/05 01:24:54;;;;;;;3.90;3.50;;;;;;;17.20;56.04;96788.97;4967910;28;20540;-69
2023/09/05 01:27:22;;;;;;;4.00;3.07;;;;;;;17.33;55.30;96793.34;4975207;28;20467;-69
2023/09/05 01:29:49;;;;;;;4.67;3.50;;;;;;;17.12;56.07;96792.91;4969689;28;20177;-70
2023/09/05 01:32:16;;;;;;;5.07;3.63;;;;;;;17.23;55.74;96789.59;4970076;28;20417;-70
2023/09/05 01:34:41;;;;;;;3.80;3.40;;;;;;;17.05;56.13;96788.97;4969567;28;20441;-69
2023/09/05 01:37:10;;;;;;;5.30;3.30;;;;;;;17.07;56.45;96792.38;4969499;28;20862;-69
2023/09/05 01:39:36;;;;;;;3.83;3.43;;;;;;;17.07;56.13;96802.13;4969548;28;20184;-69
2023/09/05 01:42:01;;;;;;;4.53;3.30;;;;;;;16.76;57.03;96789.94;4969174;28;20432;-70
2023/09/05 01:44:26;;;;;;;3.80;3.40;;;;;;;16.75;57.48;96786.44;4968906;28;20219;-69
2023/09/05 01:46:52;;;;;;;3.83;3.40;;;;;;;16.88;57.31;96771.47;4969616;28;20166;-69
2023/09/05 01:49:17;;;;;;;4.30;3.70;;;;;;;17.05;56.23;96773.03;4969276;28;20170;-69
2023/09/05 01:51:43;;;;;;;4.40;3.30;;;;;;;17.11;56.67;96777.97;4969657;28;20194;-70
2023/09/05 01:54:08;;;;;;;4.77;3.83;;;;;;;17.01;56.73;96773.34;4968979;28;20181;-70
2023/09/05 01:56:34;;;;;;;4.60;3.70;;;;;;;17.04;56.49;96781.13;4974599;28;20204;-69
2023/09/05 01:58:59;;;;;;;4.73;3.87;;;;;;;16.93;57.39;96777.34;4968365;28;20185;-69
2023/09/05 02:01:24;;;;;;;4.03;3.40;;;;;;;16.79;57.71;96773.84;4968909;28;20260;-69
2023/09/05 02:03:50;;;;;;;5.03;4.30;;;;;;;16.65;58.24;96766.72;4968823;28;20541;-69
2023/09/05 02:06:15;;;;;;;3.63;3.30;;;;;;;16.61;58.03;96762.59;4968975;28;20213;-69
2023/09/05 02:08:41;;;;;;;5.60;3.70;;;;;;;16.54;59.03;96770.06;4969214;28;20165;-70
2023/09/05 02:11:10;;;;;;;4.37;3.60;;;;;;;16.56;58.61;96770.81;4974393;28;20180;-69
2023/09/05 02:13:36;;;;;;;4.90;4.27;;;;;;;16.72;57.90;96768.94;4970319;28;20440;-69
2023/09/05 02:16:01;;;;;;;4.10;3.70;;;;;;;16.60;58.39;96761.72;4968675;28;21310;-69
2023/09/05 02:18:27;;;;;;;4.30;3.80;;;;;;;16.50;58.53;96764.09;4968533;28;20233;-69
2023/09/05 02:21:01;;;;;;;4.00;3.60;;;;;;;16.56;58.38;96762.88;4972638;28;20272;-70
2023/09/05 02:23:27;;;;;;;5.40;3.93;;;;;;;16.61;58.26;96765.25;4967560;28;20181;-69
2023/09/05 02:26:00;;;;;;;5.37;4.50;;;;;;;16.60;58.61;96764.38;4968011;28;20514;-69
2023/09/05 02:28:26;;;;;;;3.93;3.40;;;;;;;16.63;58.55;96764.19;4968742;28;20949;-69
2023/09/05 02:30:55;;;;;;;4.63;4.17;;;;;;;16.74;57.99;96766.16;4968731;28;20484;-69
2023/09/05 02:33:21;;;;;;;5.90;3.50;;;;;;;16.50;58.70;96776.50;4968199;28;20833;-69
2023/09/05 02:35:47;;;;;;;6.97;3.83;;;;;;;16.41;59.42;96771.75;4968909;28;20440;-69
2023/09/05 02:38:13;;;;;;;7.20;4.10;;;;;;;16.33;59.36;96766.09;4968459;28;20463;-69
2023/09/05 02:40:45;;;;;;;4.50;3.67;;;;;;;16.46;59.08;96767.03;4968319;28;20184;-69
2023/09/05 02:43:12;;;;;;;5.20;4.40;;;;;;;16.27;59.61;96762.84;4967855;28;20639;-69
2023/09/05 02:45:38;;;;;;;5.30;3.73;;;;;;;16.47;59.31;96768.75;4968336;28;21324;-69
2023/09/05 02:48:04;;;;;;;5.87;4.37;;;;;;;16.10;60.27;96768.31;4968560;28;20413;-69
2023/09/05 02:50:29;;;;;;;4.70;4.30;;;;;;;16.28;60.27;96772.50;4968373;28;20181;-69
2023/09/05 02:52:55;;;;;;;4.93;3.97;;;;;;;16.16;60.30;96764.44;4968060;28;20188;-69
2023/09/05 02:55:20;;;;;;;5.10;3.87;;;;;;;16.18;60.50;96773.16;4968741;28;20193;-69
2023/09/05 02:57:45;;;;;;;4.03;3.30;;;;;;;16.18;60.52;96766.09;4968841;28;20556;-69
2023/09/05 03:00:11;;;;;;;7.17;4.17;;;;;;;16.00;61.27;96769.81;4968323;28;20200;-69
2023/09/05 03:02:40;;;;;;;4.33;3.90;;;;;;;15.99;61.24;96774.28;4968237;28;20181;-69
2023/09/05 03:05:06;;;;;;;4.17;3.70;;;;;;;16.17;60.90;96766.16;4967790;28;20687;-69
2023/09/05 03:07:31;;;;;;;5.30;3.50;;;;;;;16.19;60.29;96769.56;4967905;28;20408;-69
2023/09/05 03:09:57;;;;;;;5.30;4.47;;;;;;;16.11;60.62;96771.81;4968026;28;20436;-69
2023/09/05 03:12:23;;;;;;;5.23;3.77;;;;;;;16.33;60.04;96766.94;4968045;28;20253;-69
2023/09/05 03:14:48;;;;;;;4.20;3.60;;;;;;;16.13;60.77;96768.13;4967363;28;20293;-69
2023/09/05 03:17:13;;;;;;;4.53;4.10;;;;;;;16.05;61.20;96762.47;4967821;28;20312;-69
2023/09/05 03:19:39;;;;;;;5.57;4.13;;;;;;;16.07;61.04;96753.47;4967940;28;20178;-69
2023/09/05 03:22:06;;;;;;;5.97;3.90;;;;;;;16.11;60.87;96762.09;4967734;28;20307;-69
2023/09/05 03:24:33;;;;;;;4.73;3.90;;;;;;;16.12;60.99;96755.84;4967372;28;20563;-69
2023/09/05 03:26:58;;;;;;;4.23;3.47;;;;;;;16.15;61.13;96757.47;4967563;28;20416;-70
2023/09/05 03:29:24;;;;;;;4.70;4.03;;;;;;;16.05;61.35;96754.50;4967882;28;20425;-68
2023/09/05 03:31:49;;;;;;;5.90;4.20;;;;;;;16.07;61.29;96761.41;4967590;28;20181;-69
2023/09/05 03:34:15;;;;;;;8.30;3.77;;;;;;;16.08;61.44;96756.97;4967608;28;20378;-69
2023/09/05 03:36:40;;;;;;;4.83;3.90;;;;;;;16.12;61.74;96762.94;4967489;28;20200;-69
2023/09/05 03:39:06;;;;;;;4.33;3.90;;;;;;;15.95;62.24;96761.31;4967319;28;20532;-70
2023/09/05 03:41:31;;;;;;;5.57;4.10;;;;;;;15.85;62.30;96767.16;4967388;28;20294;-69
2023/09/05 03:43:57;;;;;;;5.30;4.70;;;;;;;15.88;62.41;96768.75;4969513;28;20196;-69
2023/09/05 03:46:22;;;;;;;4.93;4.30;;;;;;;15.84;63.01;96775.16;4968262;28;20197;-68
2023/09/05 03:48:49;;;;;;;4.80;4.27;;;;;;;15.97;62.69;96767.34;4968123;28;20169;-69
2023/09/05 03:51:15;;;;;;;5.00;4.50;;;;;;;16.04;62.62;96758.13;4968181;28;20197;-69
2023/09/05 03:53:40;;;;;;;4.73;4.00;;;;;;;15.64;63.85;96758.63;4967100;28;20415;-69
2023/09/05 03:56:06;;;;;;;7.60;4.43;;;;;;;15.64;64.03;96769.22;4967103;28;20201;-69
2023/09/05 03:58:31;;;;;;;6.30;4.60;;;;;;;15.59;64.52;96762.47;4967056;28;20300;-69
2023/09/05 04:01:03;;;;;;;4.67;4.10;;;;;;;15.54;64.56;96761.91;4967281;28;20232;-70
2023/09/05 04:03:31;;;;;;;6.70;6.00;;;;;;;15.55;64.98;96761.81;4966979;28;20185;-68
2023/09/05 04:06:00;;;;;;;7.23;5.30;;;;;;;15.61;64.88;96757.94;4966943;28;20444;-70
2023/09/05 04:08:26;;;;;;;5.50;4.63;;;;;;;15.54;65.09;96765.38;4967301;28;20479;-69
2023/09/05 04:10:56;;;;;;;6.13;4.57;;;;;;;15.73;64.57;96767.88;4967782;28;20863;-69
2023/09/05 04:13:22;;;;;;;6.73;4.80;;;;;;;15.55;65.18;96763.63;4967115;28;20184;-69
2023/09/05 04:15:47;;;;;;;10.73;5.33;;;;;;;15.43;65.64;96760.72;4967112;28;21139;-69
2023/09/05 04:18:12;;;;;;;7.10;4.77;;;;;;;15.36;65.94;96762.03;4967263;28;20205;-69
2023/09/05 04:20:38;;;;;;;7.37;5.40;;;;;;;15.40;66.30;96762.69;4967426;28;20276;-69
2023/09/05 04:23:03;;;;;;;7.27;5.07;;;;;;;15.23;66.84;96763.66;4967007;28;20217;-69
2023/09/05 04:25:29;;;;;;;8.60;5.57;;;;;;;15.46;65.99;96765.00;4967147;28;20197;-69
2023/09/05 04:27:54;;;;;;;5.90;5.13;;;;;;;15.32;66.31;96770.22;4967304;28;20208;-70
2023/09/05 04:30:20;;;;;;;6.40;5.30;;;;;;;15.44;65.95;96777.44;4969606;28;20265;-68
2023/09/05 04:32:45;;;;;;;6.93;5.00;;;;;;;15.34;66.43;96771.84;4967700;28;20187;-67
2023/09/05 04:35:10;;;;;;;7.20;5.50;;;;;;;15.30;66.91;96769.44;4963006;28;20212;-69
2023/09/05 04:37:36;;;;;;;6.13;4.73;;;;;;;15.38;66.64;96772.53;4965887;28;20308;-69
2023/09/05 04:40:01;;;;;;;7.60;5.43;;;;;;;15.07;67.56;96774.25;4967627;28;20256;-69
2023/09/05 04:42:27;;;;;;;6.60;5.07;;;;;;;15.21;67.39;96770.81;4966536;28;20268;-67
2023/09/05 04:44:52;;;;;;;6.60;5.00;;;;;;;15.35;66.80;96776.16;4966649;28;20198;-69
2023/09/05 04:47:18;;;;;;;6.63;4.57;;;;;;;15.37;66.51;96776.94;4967167;28;20170;-68
2023/09/05 04:49:44;;;;;;;6.67;5.33;;;;;;;15.44;66.68;96780.09;4966746;28;20185;-69
2023/09/05 04:52:11;;;;;;;7.93;5.20;;;;;;;15.31;67.02;96779.94;4966142;28;20471;-70
2023/09/05 04:54:37;;;;;;;5.93;4.53;;;;;;;15.32;66.91;96786.94;4966954;28;20227;-70
2023/09/05 04:57:02;;;;;;;5.27;4.77;;;;;;;15.35;66.96;96794.69;4967884;28;20456;-70
2023/09/05 04:59:28;;;;;;;6.57;4.33;;;;;;;15.39;66.97;96798.03;4967444;28;20205;-69
2023/09/05 05:01:53;;;;;;;7.57;5.37;;;;;;;15.48;66.64;96794.84;4960155;28;20205;-70
2023/09/05 05:04:22;;;;;;;5.23;4.50;;;;;;;15.53;66.19;96791.94;4947625;28;20182;-69
2023/09/05 05:06:47;;;;;;;7.27;4.83;;;;;;;15.41;66.81;96788.22;4947792;28;20253;-69
2023/09/05 05:09:13;;;;;;;5.27;4.27;;;;;;;15.55;66.63;96795.38;4947840;28;20414;-70
2023/09/05 05:11:38;;;;;;;4.93;4.47;;;;;;;15.44;67.11;96799.44;4947808;28;20184;-69
2023/09/05 05:14:04;;;;;;;5.27;4.77;;;;;;;15.42;66.96;96795.19;4947494;28;20274;-69
2023/09/05 05:16:29;;;;;;;5.63;5.00;;;;;;;15.49;67.19;96804.47;4947470;28;20209;-69
2023/09/05 05:18:54;;;;;;;5.90;4.57;;;;;;;15.43;67.39;96803.06;4947749;28;20659;-69
2023/09/05 05:21:20;;;;;;;4.97;4.47;;;;;;;15.27;67.86;96814.59;4960196;28;20182;-69
2023/09/05 05:23:45;;;;;;;6.37;4.23;;;;;;;15.60;66.94;96814.47;4964734;28;20185;-68
2023/09/05 05:26:10;;;;;;;10.13;4.90;;;;;;;15.73;66.16;96818.16;4965412;28;20233;-69
2023/09/05 05:28:36;;;;;;;9.87;6.30;;;;;;;15.65;66.50;96815.03;4960954;28;20232;-70
2023/09/05 05:31:01;;;;;;;6.40;5.80;;;;;;;15.65;66.46;96818.53;4968393;28;20208;-70
2023/09/05 05:33:26;;;;;;;4.70;4.20;;;;;;;15.81;66.50;96815.06;4966177;28;20201;-69
2023/09/05 05:35:54;;;;;;;6.50;5.50;;;;;;;17.10;62.46;96805.44;4970817;28;20244;-69
2023/09/05 05:38:19;;;;;;;6.83;4.20;;;;;;;18.35;57.65;96799.91;4966409;28;20217;-69
2023/09/05 05:40:45;;;;;;;5.37;4.70;;;;;;;18.80;56.09;96795.91;4966126;28;20487;-68
2023/09/05 05:43:10;;;;;;;5.90;5.20;;;;;;;19.53;53.71;96799.50;4961689;28;20294;-69
2023/09/05 05:45:36;;;;;;;5.30;4.77;;;;;;;20.00;52.65;96797.81;4964454;28;20209;-69
2023/09/05 05:48:01;;;;;;;4.70;4.07;;;;;;;20.71;50.47;96792.41;4961650;28;20186;-69
2023/09/05 05:50:27;;;;;;;5.63;4.40;;;;;;;21.23;48.64;96795.44;4966091;28;20232;-69
2023/09/05 05:52:52;;;;;;;5.60;4.47;;;;;;;21.75;46.92;96800.06;4963417;28;20185;-69
2023/09/05 05:55:17;;;;;;;6.10;4.20;;;;;;;21.46;47.75;96806.97;4965771;28;20845;-69
2023/09/05 05:57:43;;;;;;;5.43;4.80;;;;;;;22.13;46.30;96805.88;4964203;28;20209;-70
2023/09/05 06:00:08;;;;;;;4.10;3.33;;;;;;;21.56;47.69;96802.56;4961874;28;20188;-70
2023/09/05 06:02:34;;;;;;;7.93;4.57;;;;;;;21.32;47.56;96797.38;4966897;28;20181;-68
2023/09/05 06:04:59;;;;;;;5.20;4.33;;;;;;;21.31;48.04;96801.03;4976342;28;20228;-69
2023/09/05 06:07:25;;;;;;;11.40;4.87;;;;;;;21.77;47.23;96798.13;4967309;28;20173;-70
2023/09/05 06:09:50;;;;;;;4.53;4.13;;;;;;;21.32;47.87;96803.53;4960916;28;20185;-69
2023/09/05 06:12:16;;;;;;;6.27;4.03;;;;;;;21.62;47.43;96811.91;4948320;28;20651;-69
2023/09/05 06:14:41;;;;;;;5.57;4.67;;;;;;;21.71;47.42;96808.50;4953164;28;20656;-70
2023/09/05 06:17:06;;;;;;;4.80;4.30;;;;;;;21.05;48.48;96803.13;4966154;28;20476;-69
2023/09/05 06:19:32;;;;;;;5.10;4.60;;;;;;;19.70;52.72;96811.63;4948383;28;20244;-69
2023/09/05 06:21:58;;;;;;;6.97;4.60;;;;;;;19.48;53.38;96796.34;4948037;28;20186;-70
2023/09/05 06:24:24;;;;;;;5.67;5.07;;;;;;;18.85;55.11;96803.56;4948351;28;20242;-70
2023/09/05 06:26:49;;;;;;;6.07;5.00;;;;;;;18.88;55.36;96797.16;4965545;28;20523;-70
2023/09/05 06:29:15;;;;;;;4.70;4.27;;;;;;;19.20;54.83;96793.03;4965997;28;20268;-70
2023/09/05 06:31:40;;;;;;;12.90;5.17;;;;;;;19.51;53.54;96796.13;4957851;28;20186;-70
2023/09/05 06:34:05;;;;;;;5.97;5.37;;;;;;;19.77;52.49;96801.34;4962770;28;20181;-69
2023/09/05 06:36:31;;;;;;;4.73;4.20;;;;;;;19.86;52.36;96806.00;4972443;28;20255;-70
2023/09/05 06:38:56;;;;;;;6.17;4.70;;;;;;;20.17;51.49;96801.03;4965468;28;20202;-69
2023/09/05 06:41:21;;;;;;;6.83;4.93;;;;;;;20.40;51.10;96802.78;4965179;28;20260;-70
2023/09/05 06:43:47;;;;;;;14.93;5.43;;;;;;;20.65;50.69;96798.25;4965719;28;20742;-70
2023/09/05 06:46:13;;;;;;;6.60;5.30;;;;;;;20.18;51.42;96792.91;4968232;28;20229;-70
2023/09/05 06:48:39;;;;;;;6.23;5.13;;;;;;;19.78;52.58;96798.59;4968621;28;20296;-69
2023/09/05 06:51:05;;;;;;;8.43;5.20;;;;;;;19.82;52.65;96804.56;4970419;28;20608;-71
2023/09/05 06:53:32;;;;;;;6.40;5.03;;;;;;;19.49;53.32;96807.84;4968254;28;20452;-72
2023/09/05 06:55:57;;;;;;;6.73;4.50;;;;;;;20.29;51.86;96805.41;4967004;28;20209;-71
2023/09/05 06:58:24;;;;;;;6.17;4.97;;;;;;;20.89;50.13;96801.66;4968039;28;20491;-69
2023/09/05 07:00:54;;;;;;;4.93;4.50;;;;;;;19.74;52.83;96806.91;4964155;28;20216;-69
2023/09/05 07:03:23;;;;;;;7.10;4.97;;;;;;;19.54;53.94;96800.38;4954802;28;20443;-69
2023/09/05 07:05:49;;;;;;;5.33;4.40;;;;;;;20.45;51.87;96797.94;4964857;28;20548;-69
2023/09/05 07:08:15;;;;;;;4.93;4.43;;;;;;;20.44;51.47;96796.25;4968571;28;20512;-69
2023/09/05 07:10:40;;;;;;;5.60;4.47;;;;;;;21.08;49.92;96801.03;4967943;28;20774;-69
2023/09/05 07:13:06;;;;;;;12.10;5.37;;;;;;;21.03;49.78;96797.06;4967649;28;20244;-70
2023/09/05 07:15:31;;;;;;;10.13;4.90;;;;;;;21.01;50.27;96796.31;4967283;28;20257;-69
2023/09/05 07:17:57;;;;;;;6.10;5.17;;;;;;;20.03;52.34;96805.59;4968803;28;20205;-69
2023/09/05 07:20:22;;;;;;;11.50;5.40;;;;;;;21.11;50.11;96798.13;4987135;28;20185;-70
2023/09/05 07:22:48;;;;;;;8.27;5.37;;;;;;;20.49;51.98;96802.06;4982884;28;20181;-70
2023/09/05 07:25:13;;;;;;;9.87;4.70;;;;;;;21.18;50.28;96802.97;4977891;28;20189;-70
2023/09/05 07:27:40;;;;;;;9.67;4.97;;;;;;;21.28;50.40;96804.78;4983978;28;20513;-70
2023/09/05 07:30:06;;;;;;;6.60;5.30;;;;;;;21.38;49.24;96804.03;4980152;28;20239;-71
2023/09/05 07:32:31;;;;;;;8.13;5.70;;;;;;;21.69;48.54;96810.44;4975228;28;20551;-68
2023/09/05 07:34:57;;;;;;;5.50;5.00;;;;;;;21.23;49.58;96817.63;4976068;28;20542;-70
2023/09/05 07:37:22;;;;;;;4.93;4.53;;;;;;;21.34;49.43;96806.94;4977339;28;20617;-71
2023/09/05 07:39:50;;;;;;;24.63;6.53;;;;;;;21.26;50.32;96808.53;4979530;28;20248;-71
2023/09/05 07:42:16;;;;;;;5.60;5.10;;;;;;;21.08;50.20;96800.19;4977982;28;20652;-71
2023/09/05 07:44:41;;;;;;;8.30;5.00;;;;;;;20.68;51.78;96806.84;4972890;28;20432;-70
2023/09/05 07:47:07;;;;;;;8.03;5.00;;;;;;;21.02;50.79;96808.69;4967585;28;20186;-69
2023/09/05 07:49:41;;;;;;;5.93;5.00;;;;;;;20.46;51.85;96814.81;4966068;28;20209;-69
2023/09/05 07:52:06;;;;;;;5.30;4.80;;;;;;;21.39;50.40;96808.41;4967917;28;20596;-71
2023/09/05 07:54:32;;;;;;;5.50;4.77;;;;;;;20.57;51.71;96811.31;4968440;28;20420;-71
2023/09/05 07:56:57;;;;;;;7.03;5.00;;;;;;;20.45;52.16;96808.59;4967964;28;20244;-70
2023/09/05 07:59:23;;;;;;;5.93;4.77;;;;;;;20.81;51.54;96808.56;4970186;28;20197;-70
2023/09/05 08:01:49;;;;;;;7.20;5.77;;;;;;;20.61;52.54;96808.31;4967738;28;20513;-69
2023/09/05 08:04:14;;;;;;;5.33;4.83;;;;;;;20.51;52.79;96801.97;4965892;28;20464;-70
2023/09/05 08:06:40;;;;;;;7.27;4.00;;;;;;;21.03;51.78;96795.22;4965730;28;20216;-70
2023/09/05 08:09:05;;;;;;;7.63;4.30;;;;;;;20.83;52.09;96786.13;4966411;28;20213;-71
2023/09/05 08:11:31;;;;;;;5.87;4.60;;;;;;;21.34;50.43;96792.75;4964582;28;20198;-70
2023/09/05 08:13:56;;;;;;;7.10;4.40;;;;;;;21.34;50.24;96796.28;4965441;28;20879;-70
2023/09/05 08:16:22;;;;;;;4.70;4.13;;;;;;;20.50;52.60;96806.44;4966918;28;20244;-70
2023/09/05 08:18:47;;;;;;;7.93;4.40;;;;;;;20.72;52.52;96802.97;4965969;28;20202;-70
2023/09/05 08:21:12;;;;;;;5.80;4.60;;;;;;;21.30;51.53;96799.31;4966795;28;20176;-71
2023/09/05 08:23:38;;;;;;;5.17;4.67;;;;;;;21.35;50.76;96792.66;4966901;28;20170;-71
2023/09/05 08:26:04;;;;;;;6.73;4.37;;;;;;;21.48;50.70;96797.84;4967618;28;20185;-69
2023/09/05 08:28:33;;;;;;;13.90;4.30;;;;;;;21.75;49.82;96789.38;4971528;28;20226;-71
2023/09/05 08:30:59;;;;;;;4.07;3.67;;;;;;;21.57;49.47;96793.59;4971115;28;20436;-71
2023/09/05 08:33:26;;;;;;;5.60;3.30;;;;;;;21.23;49.26;96784.75;4971530;28;20409;-70
2023/09/05 08:35:53;;;;;;;6.80;3.97;;;;;;;21.66;50.03;96791.97;4971008;28;20591;-70
2023/09/05 08:38:18;;;;;;;4.70;3.40;;;;;;;21.78;49.09;96783.81;4976642;28;20464;-70
2023/09/05 08:40:47;;;;;;;5.07;3.03;;;;;;;21.78;47.80;96805.19;4971948;28;20409;-72
2023/09/05 08:43:16;;;;;;;7.93;4.23;;;;;;;21.99;47.69;96797.19;4976218;28;20224;-71
2023/09/05 08:45:44;;;;;;;3.47;2.67;;;;;;;21.97;47.40;96792.97;4970774;28;21114;-69
2023/09/05 08:48:10;;;;;;;5.13;3.20;;;;;;;22.12;46.89;96788.16;4970794;28;20901;-71
2023/09/05 08:50:36;;;;;;;6.73;3.40;;;;;;;21.96;47.40;96789.41;4975184;28;20538;-70
2023/09/05 08:53:14;;;;;;;4.77;3.00;;;;;;;21.86;48.05;96801.84;4976559;28;20181;-70
2023/09/05 08:55:41;;;;;;;5.70;3.77;;;;;;;22.24;46.19;96802.34;4970506;28;20520;-69
2023/09/05 08:58:14;;;;;;;7.23;3.30;;;;;;;21.98;46.92;96789.31;4970508;28;20821;-70
2023/09/05 09:00:39;;;;;;;4.87;3.67;;;;;;;21.93;46.85;96787.00;4969135;28;21299;-69
2023/09/05 09:03:06;;;;;;;5.90;4.20;;;;;;;22.40;46.56;96782.19;4969699;28;20423;-70
2023/09/05 09:05:32;;;;;;;3.80;2.97;;;;;;;22.17;47.27;96797.47;4979421;28;20714;-71
2023/09/05 09:08:01;;;;;;;4.60;3.93;;;;;;;21.82;48.08;96786.22;4970070;28;20421;-71
2023/09/05 09:10:26;;;;;;;6.80;3.43;;;;;;;22.03;47.54;96788.91;4969905;28;20455;-69
2023/09/05 09:12:54;;;;;;;4.57;3.10;;;;;;;21.74;48.14;96782.34;4966971;28;20441;-69
2023/09/05 09:15:24;;;;;;;4.10;3.30;;;;;;;21.66;47.64;96795.50;4969638;28;20296;-70
2023/09/05 09:17:50;;;;;;;3.97;3.17;;;;;;;21.86;47.50;96780.47;4969258;28;20464;-70
2023/09/05 09:20:18;;;;;;;5.37;3.50;;;;;;;22.05;47.13;96781.63;4969088;28;20883;-70
2023/09/05 09:22:44;;;;;;;4.77;3.73;;;;;;;22.17;47.04;96778.75;4969425;28;20504;-70
2023/09/05 09:25:12;;;;;;;5.57;3.37;;;;;;;22.49;46.58;96777.88;4969337;28;20445;-70
2023/09/05 09:27:39;;;;;;;4.07;3.47;;;;;;;22.54;46.18;96778.31;4969583;28;20262;-71
2023/09/05 09:30:06;;;;;;;4.80;3.80;;;;;;;22.10;45.92;96768.72;4969462;28;20508;-71
2023/09/05 09:32:32;;;;;;;7.63;3.57;;;;;;;22.50;45.22;96766.19;4974031;28;20433;-71
2023/09/05 09:34:58;;;;;;;4.00;2.80;;;;;;;22.15;46.46;96753.97;4969166;28;20444;-70
2023/09/05 09:37:26;;;;;;;4.70;3.80;;;;;;;22.49;46.03;96760.97;4972533;28;20553;-70
2023/09/05 09:40:02;;;;;;;3.50;3.20;;;;;;;22.65;46.13;96747.09;4967519;28;20185;-70
2023/09/05 09:42:28;;;;;;;5.80;3.40;;;;;;;23.08;45.60;96748.72;4968881;28;20444;-70
2023/09/05 09:44:55;;;;;;;3.47;3.17;;;;;;;22.61;45.51;96746.53;4969116;28;20447;-70
2023/09/05 09:47:21;;;;;;;6.67;3.40;;;;;;;23.03;44.61;96739.28;4969644;28;20264;-71
2023/09/05 09:49:50;;;;;;;4.77;3.00;;;;;;;23.04;44.29;96738.28;4969107;28;20965;-70
2023/09/05 09:52:19;;;;;;;4.33;2.80;;;;;;;23.17;44.49;96732.69;4969176;28;20420;-71
2023/09/05 09:54:46;;;;;;;5.03;3.70;;;;;;;22.92;44.98;96728.63;4968856;28;21145;-71
2023/09/05 09:57:20;;;;;;;4.40;3.10;;;;;;;22.75;45.25;96737.31;4965108;28;20587;-71
2023/09/05 09:59:53;;;;;;;3.20;2.90;;;;;;;23.01;45.26;96727.00;4969239;28;20452;-71
2023/09/05 10:02:20;;;;;;;4.37;3.50;;;;;;;23.01;45.42;96718.97;4967652;28;20417;-71
2023/09/05 10:04:46;;;;;;;5.30;3.33;;;;;;;22.90;45.47;96725.25;4968707;28;20441;-71
2023/09/05 10:07:16;;;;;;;5.93;3.27;;;;;;;23.34;44.83;96716.91;4969110;28;20413;-71
2023/09/05 10:09:45;;;;;;;4.00;3.40;;;;;;;23.58;44.21;96721.91;4968112;28;20451;-70
2023/09/05 10:12:12;;;;;;;5.70;3.47;;;;;;;23.81;43.51;96720.66;4968702;28;20447;-70
2023/09/05 10:14:38;;;;;;;12.23;3.93;;;;;;;23.59;44.49;96724.41;4968639;28;20997;-70
2023/09/05 10:17:04;;;;;;;5.20;3.93;;;;;;;23.73;44.98;96720.47;4965471;28;20814;-70
2023/09/05 10:19:32;;;;;;;7.43;3.27;;;;;;;23.81;44.17;96709.94;4968161;28;20943;-70
2023/09/05 10:21:59;;;;;;;5.67;3.60;;;;;;;23.32;44.36;96717.06;4968039;28;20417;-69
2023/09/05 10:24:32;;;;;;;8.50;3.73;;;;;;;24.01;43.70;96705.41;4967739;28;20421;-70
2023/09/05 10:26:58;;;;;;;5.47;3.20;;;;;;;24.22;43.01;96699.00;4949094;28;20429;-71
2023/09/05 10:29:34;;;;;;;8.17;3.87;;;;;;;24.30;42.93;96685.72;4972968;28;20440;-70
2023/09/05 10:32:04;;;;;;;4.03;2.97;;;;;;;24.04;42.90;96693.53;4968844;28;20420;-70
2023/09/05 10:34:47;;;;;;;11.00;3.27;;;;;;;24.08;43.09;96693.09;4968556;28;20448;-70
2023/09/05 10:37:21;;;;;;;4.83;2.97;;;;;;;24.00;42.89;96687.63;4963193;28;20596;-69
2023/09/05 10:39:54;;;;;;;5.43;3.33;;;;;;;23.56;43.71;96695.22;4968309;28;20416;-70
2023/09/05 10:42:28;;;;;;;16.13;4.90;;;;;;;23.49;43.92;96690.59;4965969;28;20499;-70
2023/09/05 10:44:55;;;;;;;3.40;2.70;;;;;;;23.82;43.29;96686.66;4974131;28;20452;-70
2023/09/05 10:47:25;;;;;;;7.60;2.80;;;;;;;24.05;42.69;96677.31;4966314;28;20468;-69
2023/09/05 10:49:57;;;;;;;5.13;3.03;;;;;;;23.69;43.57;96681.53;4960267;28;20452;-71
2023/09/05 10:52:22;;;;;;;4.37;3.20;;;;;;;24.06;42.84;96673.63;4967549;28;20421;-71
2023/09/05 10:54:48;;;;;;;5.93;3.90;;;;;;;24.03;42.70;96675.78;4966851;28;20853;-70
2023/09/05 10:57:40;;;;;;;6.70;4.00;;;;;;;24.38;43.02;96675.13;4967483;28;20216;-70
2023/09/05 11:00:14;;;;;;;3.60;2.87;;;;;;;24.19;42.35;96677.81;4967549;28;20277;-71
2023/09/05 11:02:40;;;;;;;3.57;2.90;;;;;;;24.01;43.00;96669.69;4974724;28;20443;-71
2023/09/05 11:05:18;;;;;;;3.97;2.53;;;;;;;24.18;43.15;96674.31;4968171;28;20445;-71
2023/09/05 11:07:44;;;;;;;4.70;2.80;;;;;;;24.58;42.07;96669.69;4967247;28;20906;-71
2023/09/05 11:10:29;;;;;;;3.17;2.87;;;;;;;24.61;42.37;96664.88;4967815;28;20427;-70
2023/09/05 11:12:56;;;;;;;4.60;2.83;;;;;;;24.75;41.80;96663.53;4967975;28;20437;-70
2023/09/05 11:15:31;;;;;;;3.47;2.90;;;;;;;24.46;42.55;96660.97;4967374;28;20459;-71
2023/09/05 11:18:04;;;;;;;3.93;2.70;;;;;;;24.24;42.69;96657.66;4973994;28;20543;-70
2023/09/05 11:20:41;;;;;;;2.63;2.40;;;;;;;24.42;42.54;96663.06;4970017;28;20428;-70
2023/09/05 11:23:25;;;;;;;3.03;2.43;;;;;;;23.85;43.22;96659.56;4968427;28;20886;-70
2023/09/05 11:26:10;;;;;;;6.43;3.20;;;;;;;24.51;42.28;96651.50;4968484;28;20460;-70
2023/09/05 11:28:37;;;;;;;3.33;2.40;;;;;;;24.57;42.35;96654.56;4969018;28;20832;-69
2023/09/05 11:31:03;;;;;;;4.43;2.63;;;;;;;24.29;42.39;96655.38;4967748;28;20443;-69
2023/09/05 11:33:29;;;;;;;3.90;2.73;;;;;;;24.49;42.21;96658.00;4967946;28;20440;-71